Decoded Metar for PANC (ANCHORAGE in AK, USA) (IATA:ANC) | Meteo·Mobile Aviation Weather
aviador You're here:

PANC Decoded Metar

ANCHORAGE in AK, USA
Report Time2019-02-17 14:53:00
UTC Time2019-02-17 15:30:54
Flight Rules vfr VFR
Wind350° at 07 kt
W.Decomp.*RWY 33: 7.0 kt HW 0.1 kt RCW
RWY 25: 1.1 kt HW 6.9 kt RCW
W.Rank350° ranks 4
Current wind is above 350° avg. (6.8)
Visibility9999 m
Phenomena:N/A
Clouds:Overcast 080 Hf
Expected CloudBase > 1,200 ft AGL from Temp-Dew spread
Ceiling8,000 ft
Temp-4°C (ISA -19)
Dew Point-7°C (80% RH)
AAT-9.3°C
QNH1017 hPa
Density Alt-2,274 ft
Elevation125 ft
Report Wrong Elevation
Raw Report
PANC 171453Z 35007KT 10SM OVC080 M04/M07 A3004=

Extra information for PANC:More info

Metar Taf Metar & Taf Last 4 Metars F.Rules Stats Wind Profile Meteogram Temp Stats Airport Information Weather charts Add Link Nearby VenuesMetar ALERT Operation Metar Decoded Social comments

AIRNAV info for PANC
Anchorage Webcam N